« 2018千歳基地航空祭【B.I.編】 千歳飛行場 2018/7/22 sun | トップページ | 自衛艦「ひゅうが」入港 富山伏木港 2018/7/27 fri »

2018/07/25

2018千歳基地航空祭【フライト編】 千歳飛行場 2018/7/22 sun

航空祭当日も、朝から靄。涼しいのはいいのですが、フライトが心配。

RJCC 212130Z VRB01KT 4000 BR FEW010 BKN/// 21/20 Q1004

20180722_rjcc_f00c201101

南千歳から歩いて基地へ

RJCC 212200Z VRB02KT 3500 BR FEW010 BKN/// 22/21 Q1004 RMK 1ST010 A2967

20180722_rjcc_f01cab

千歳基地は、50周年

20180722_rjcc_f04f428844

列線にはリアルベアとブルードルフィン

20180722_rjcc_f05ja753a

ANA50 RJCC-RJTT JA753A B777-381

民航機はすぐ雲に隠れてしまいます。

20180722_rjcc_f06t465716

46-5716 T-4 / 16-5673 T-4 203SQ M-B

20180722_rjcc_f07t165673

フィールドIMC 雲は薄いけど、べったり

RJCC 212300Z 35009KT 4500 BR FEW007 BKN/// 23/21 Q1004

20180722_rjcc_f08f128077

12-8077 F-15DJ 201SQ K01

オープニングフライトへ離陸

20180722_rjcc_f09f428842

42-8842 F-15J 201SQ K02

20180722_rjcc_f10u923010

救難さんもオープラングフライトへ

20180722_rjcc_f11h984589

98-4589 UH-60J CHITOSE-ARS B05

20180722_rjcc_f12u923010

92-3010 U-125A CHITOSE-ARS J01

20180722_rjcc_f13jasdf

会場では、オープニング式典

RJCC 212350Z 34013KT 5000 BR FEW007 BKN009 BKN/// 23/20 Q1004 RMK 1ST007 5ST009 A2967

20180722_rjcc_f14f128077

オープニングフライは、結局単機で。テープカットしてチョット待ってから姿を表しました。

20180722_rjcc_f15t465716

天候調査、オープニング機着陸

20180722_rjcc_f16t165673

16-5673 T-4 203SQ M-B2

20180722_rjcc_f17rq

救難訓練展示開始

20180722_rjcc_f18h984589

20180722_rjcc_f19h984589

20180722_rjcc_f20h984589

飛行展示をして着陸

20180722_rjcc_f21f2

三沢のF-2とVADSの模擬対空射撃 M01

20180722_rjcc_f22f2

F-2二機は、PAR誘導で航過。機番確認は無理。 M02

20180722_rjcc_f23f528856

52-8856 F-15J 203SQ 「よ」 M15

プログラムは異機種編隊飛行なのですが・・

20180722_rjcc_f24f628871

62-8871 F-15J 203SQ 「う」 M16

20180722_rjcc_f25f628866

62-8866 F-15J 203SQ 「こ」 M17

20180722_rjcc_f26f528863

52-8863 F-15J 203SQ 「そ」 M18

20180722_rjcc_f27f528856

2機2機でランナップ

20180722_rjcc_f28f628866

ハイスピードタクシーで離陸せず

20180722_rjcc_f29f15

その裏で、主役にトラブルが発生中

RJCC 220100Z 35013KT 4000 -DZ BR FEW002 BKN004 BKN006 21/19 Q1005 RMK 1ST002 5ST004 7ST006 A2968

20180722_rjcc_f30c201101

乗り換えでフライト機が変更となりました。

20180722_rjcc_f31f428844

42-8844 F-15J 201SQ

列線にいた15が機動飛行の予定でしたが・・

20180722_rjcc_f32c201101

20-1101 B747-4FC 701SQ S01

結局1号機が飛行担当へ

20180722_rjcc_f33f828066

82-8066 F-15J 203SQ

シアラから出た15も離陸せずタクシーしてお披露目

20180722_rjcc_f34f528860

52-8860 F-15J 201SQ

20180722_rjcc_f35f528848

52-8848 F-15J 203SQ

20180722_rjcc_f36f528860

盛大にお手振り

20180722_rjcc_f37f328823

32-8823 F-15J 203SQ

20180722_rjcc_f38f328823

ここにも文字「で」 他を押さえていないのだが・・

20180722_rjcc_f39f428844

機動飛行展示のリアルくまがランナップ

20180722_rjcc_f40f328818

タクシーしてエプロンに戻ります

20180722_rjcc_f41f4288444

航過飛行編隊は、4機離陸したのですが、すぐ雲中で撮影できず。

20180722_rjcc_f42c201101

20-1011 B747-47C 701SQ S01 S01

20180722_rjcc_f43c201101

シグナスさんが離陸も、すぐゴースト

20180722_rjcc_f44c201102

2号機は、ドナドナ開始

20180722_rjcc_f45c201102

2機そろっての展示に向けてエプロンにやってきます。

20180722_rjcc_f46f128077

12-8077 F-15DJ 201SQ K01

オープニング機が降りてきました。

20180722_rjcc_f47f428842

42-8842 F-15J 201SQ K02

20180722_rjcc_f48u923010

92-3010 U-125A CHITOSE-ARS J01

20180722_rjcc_f49c201102

滑走路を横断

20180722_rjcc_f50c201101

シグナスさん航過

20180722_rjcc_f51c201101

FENAL747

20180722_rjcc_f52c201101

20180722_rjcc_f53c201101

20180722_rjcc_f54c201101

20-1101 B747-47C 701SQ S01

20180722_rjcc_f55c201101

雲中に消えて・・

20180722_rjcc_f56c201102

2号機は展示エプロンへ

20180722_rjcc_f57c201102

凛々しい鼻先

RJCC 220200Z 34016KT 9999 FEW005 SCT010 BKN040 22/19 Q1005 RMK 2ST005 4ST010 7CU040 A2968

20180722_rjcc_f58c201101

1号機が自走して展示エプロン前まで

20180722_rjcc_f59c201101

ドナドナして、展示位置へ 初めての2機展示

天候不良により、午前に予定されていた室屋さんのフライトは延期

RJCC 220300Z 34015KT 9999 FEW012 BKN040 BKN/// 23/19 Q1005 RMK 1ST012 6CU040 A2968

20180722_rjcc_f60ja861a

JA861A B300 JCG

RJCC 220400Z 35019KT 9999 FEW013 BKN045 BKN/// 24/18 Q1005

20180722_rjcc_f61b18359

しばらく地上展示を眺めながら、民航機の離陸も確認

20180722_rjcc_f62b18359

CAL2131 RJCC-RCTP B-18359 A330-302

いつまでもギアアップせず、完全にお忘れ。札管に移管されても変わらず、どこで気がついたかな?

ブルーインパルス 

2018千歳基地航空祭【B.I.編】 千歳飛行場 2018/7/22 sun

RJCC 220430Z 35017KT 9999 FEW013 BKN050 BKN/// 23/17 Q1005

20180722_rjcc_f63n501dn

DAL159 KDTW-RKSI N501DN A350-941XWB

青空も現れ、天候は回復してきました。

20180722_rjcc_f64ja11db

午前の予定は、ブルーインパルスが終った後となりました。

20180722_rjcc_f65ja11db

民航の出発機もよく見えます

20180722_rjcc_f66ja11db

JA11DB EA-300S

20180722_rjcc_f67ja11db

20180722_rjcc_f68ja11db

20180722_rjcc_f69ja11db

20180722_rjcc_f70ja11db

20180722_rjcc_f71ja11db_2

シグナスさんの展示に色を添えました

20180722_rjcc_f72ja11db

新千歳空港では、国際線ビルの増築工事中。展示飛行は、これでお終い。

RJCC 220600Z 35014KT 9999 FEW030 SCT070 BKN/// 25/14 Q1005

|

« 2018千歳基地航空祭【B.I.編】 千歳飛行場 2018/7/22 sun | トップページ | 自衛艦「ひゅうが」入港 富山伏木港 2018/7/27 fri »

千歳飛行場」カテゴリの記事

チーム室屋」カテゴリの記事

コメント

コメントを書く



(ウェブ上には掲載しません)


コメントは記事投稿者が公開するまで表示されません。



トラックバック


この記事へのトラックバック一覧です: 2018千歳基地航空祭【フライト編】 千歳飛行場 2018/7/22 sun:

« 2018千歳基地航空祭【B.I.編】 千歳飛行場 2018/7/22 sun | トップページ | 自衛艦「ひゅうが」入港 富山伏木港 2018/7/27 fri »